KBGE/BGE METAR and TAF weather

Enter ICAO airport designator
Station Type Date Time Source
KBGE METAR 2018/04/20 08:55 UTC NOAA

KBGE 200855Z AUTO 02004KT 10SM 12/06 A3017 RMK AO2


Station Type Date Time Source
KBGE Decoded METAR 2018/04/20 08:55 UTC NOAA

Bainbridge, Decatur County Industrial Air Park Airport, GA, United States (KBGE) 30-58N 084-38W
Apr 20, 2018 - 04:55 AM EDT / 2018.04.20 0855 UTC
Wind: from the NNE (020 degrees) at 5 MPH (4 KT):0
Visibility: 10 mile(s):0
Temperature: 53 F (12 C)
Dew Point: 42 F (6 C)
Relative Humidity: 66%
Pressure (altimeter): 30.17 in. Hg (1021 hPa)
ob: KBGE 200855Z AUTO 02004KT 10SM 12/06 A3017 RMK AO2
cycle: 9

Station Type Date Time Source
KBGE TAF UTC NOAA

Error!


Example: see airport list